Time;durP1;ratioP1;P1;durP2;ratioP2;P2;SDS_P1;SDS_P2;PMS_P1;PMS_P2;Temp;Humidity;BMP_temperature;BMP_pressure;BME280_temperature;BME280_humidity;BME280_pressure;Samples;Min_cycle;Max_cycle;Signal;HPM_P1;HPM_P2
2022/03/06 00:02:14;;;;;;;17.80;15.60;;;;;;;2.80;80.79;94895.69;5035664;28;20039;-60
2022/03/06 00:04:39;;;;;;;19.00;14.73;;;;;;;2.76;81.13;94895.78;5029879;28;20086;-60
2022/03/06 00:07:05;;;;;;;18.75;15.45;;;;;;;2.81;81.25;94902.47;5035754;28;20029;-58
2022/03/06 00:09:30;;;;;;;19.20;14.65;;;;;;;2.76;81.17;94898.34;5026970;28;20030;-59
2022/03/06 00:11:56;;;;;;;19.85;14.02;;;;;;;2.79;81.10;94894.00;5037260;28;20124;-60
2022/03/06 00:14:22;;;;;;;18.73;13.43;;;;;;;2.83;81.28;94898.97;5027058;28;20057;-61
2022/03/06 00:16:47;;;;;;;17.20;14.18;;;;;;;2.66;80.93;94866.44;5038004;28;20039;-60
2022/03/06 00:19:13;;;;;;;17.38;13.75;;;;;;;2.84;81.06;94897.25;5026847;28;20076;-61
2022/03/06 00:21:39;;;;;;;16.98;13.13;;;;;;;2.76;81.09;94877.16;5030541;28;20512;-60
2022/03/06 00:24:05;;;;;;;16.20;13.70;;;;;;;2.86;81.54;94890.38;5043388;28;20047;-60
2022/03/06 00:26:31;;;;;;;16.42;13.20;;;;;;;2.62;80.97;94864.06;5039886;28;20041;-61
2022/03/06 00:28:57;;;;;;;15.45;12.68;;;;;;;2.74;80.95;94886.56;5032472;28;20037;-60
2022/03/06 00:31:25;;;;;;;13.88;10.63;;;;;;;2.90;80.84;94894.47;5028768;28;20032;-61
2022/03/06 00:33:52;;;;;;;12.90;9.85;;;;;;;2.90;80.40;94895.31;5035472;28;20331;-59
2022/03/06 00:36:18;;;;;;;12.88;10.18;;;;;;;2.67;80.50;94860.47;5028113;28;20488;-58
2022/03/06 00:38:44;;;;;;;13.30;9.25;;;;;;;2.70;80.13;94860.34;5035174;28;20018;-58
2022/03/06 00:41:11;;;;;;;11.20;8.57;;;;;;;2.89;79.99;94897.94;5026327;28;20107;-62
2022/03/06 00:43:37;;;;;;;12.15;8.43;;;;;;;2.46;80.40;94818.78;5033494;28;20091;-60
2022/03/06 00:46:02;;;;;;;9.70;7.40;;;;;;;2.76;80.77;94870.31;5026373;28;20037;-60
2022/03/06 00:48:28;;;;;;;10.43;9.00;;;;;;;2.82;80.11;94874.41;5037329;28;20033;-60
2022/03/06 00:50:53;;;;;;;10.63;8.13;;;;;;;2.75;80.07;94871.22;5026275;28;20147;-60
2022/03/06 00:53:19;;;;;;;11.02;7.82;;;;;;;2.71;80.44;94871.38;5034818;28;20036;-60
2022/03/06 00:55:44;;;;;;;10.00;7.43;;;;;;;2.74;80.21;94838.19;5027867;28;20773;-59
2022/03/06 00:58:10;;;;;;;12.43;9.13;;;;;;;2.71;80.31;94861.19;5028030;28;20044;-61
2022/03/06 01:00:39;;;;;;;12.35;9.23;;;;;;;2.64;80.86;94860.59;5024910;28;20027;-60
2022/03/06 01:03:06;;;;;;;11.15;8.18;;;;;;;2.65;81.00;94867.31;5026401;28;20128;-60
2022/03/06 01:05:32;;;;;;;11.27;9.15;;;;;;;2.47;80.82;94838.22;5031882;28;20052;-60
2022/03/06 01:07:58;;;;;;;12.82;9.88;;;;;;;2.65;80.60;94862.22;5028798;28;20025;-60
2022/03/06 01:10:24;;;;;;;13.80;10.07;;;;;;;2.33;81.09;94810.72;5030927;28;20032;-60
2022/03/06 01:12:49;;;;;;;13.48;10.10;;;;;;;2.09;81.29;94770.84;5036767;28;20079;-62
2022/03/06 01:15:15;;;;;;;12.75;10.38;;;;;;;2.63;80.82;94851.28;5037280;28;20352;-60
2022/03/06 01:17:41;;;;;;;14.43;10.68;;;;;;;2.43;81.06;94821.41;5035433;28;20096;-59
2022/03/06 01:20:07;;;;;;;13.65;11.10;;;;;;;2.47;81.17;94852.69;5028338;28;20037;-58
2022/03/06 01:22:32;;;;;;;14.93;11.27;;;;;;;2.41;81.50;94841.00;5028358;28;20076;-59
2022/03/06 01:24:58;;;;;;;17.02;11.10;;;;;;;2.48;82.26;94854.34;5027829;28;20049;-60
2022/03/06 01:27:24;;;;;;;12.98;10.68;;;;;;;2.50;81.68;94855.13;5027922;28;20102;-61
2022/03/06 01:29:49;;;;;;;15.35;11.50;;;;;;;2.53;81.31;94850.75;5028271;28;20378;-60
2022/03/06 01:32:15;;;;;;;14.40;11.02;;;;;;;2.51;81.04;94849.13;5028078;28;20029;-59
2022/03/06 01:34:41;;;;;;;13.95;10.73;;;;;;;2.27;81.58;94816.00;5028162;28;20455;-62
2022/03/06 01:37:06;;;;;;;14.63;11.50;;;;;;;2.49;81.67;94851.75;5027588;28;20017;-59
2022/03/06 01:39:32;;;;;;;18.50;13.35;;;;;;;2.45;82.10;94850.19;5027875;28;20087;-60
2022/03/06 01:41:57;;;;;;;15.40;12.18;;;;;;;2.08;82.19;94784.44;5028050;28;20072;-59
2022/03/06 01:44:22;;;;;;;16.30;11.90;;;;;;;2.41;82.16;94822.34;5027724;28;20026;-58
2022/03/06 01:46:48;;;;;;;16.02;12.18;;;;;;;2.51;81.80;94837.25;5027045;28;20025;-57
2022/03/06 01:49:15;;;;;;;15.45;11.88;;;;;;;2.52;81.60;94838.06;5027711;28;20051;-60
2022/03/06 01:51:41;;;;;;;15.68;12.27;;;;;;;2.46;81.25;94818.78;5028180;28;20017;-58
2022/03/06 01:54:07;;;;;;;17.85;13.20;;;;;;;2.61;80.87;94830.13;5026452;28;20033;-59
2022/03/06 01:56:32;;;;;;;17.70;13.73;;;;;;;2.59;80.96;94819.16;5027961;28;20044;-59
2022/03/06 01:59:00;;;;;;;18.73;13.57;;;;;;;2.69;80.58;94823.06;5027711;28;20728;-59
2022/03/06 02:01:26;;;;;;;17.45;13.10;;;;;;;2.70;80.00;94823.88;5027649;28;20026;-60
2022/03/06 02:03:51;;;;;;;18.90;13.18;;;;;;;2.51;80.10;94777.88;5027703;28;20455;-59
2022/03/06 02:06:23;;;;;;;16.95;12.98;;;;;;;2.76;80.15;94819.41;5027704;28;20101;-60
2022/03/06 02:08:49;;;;;;;15.35;12.05;;;;;;;2.76;79.61;94821.94;5027824;28;20037;-58
2022/03/06 02:11:16;;;;;;;17.67;13.88;;;;;;;2.69;79.56;94812.03;5031686;28;20026;-59
2022/03/06 02:13:44;;;;;;;19.02;13.45;;;;;;;2.76;79.08;94813.47;5031301;28;20041;-60
2022/03/06 02:16:10;;;;;;;18.60;13.20;;;;;;;2.79;79.05;94820.16;5032160;28;20018;-59
2022/03/06 02:18:36;;;;;;;17.23;12.98;;;;;;;2.78;79.21;94823.63;5031703;28;20025;-59
2022/03/06 02:21:10;;;;;;;19.33;14.05;;;;;;;2.76;79.52;94819.41;5031674;28;20036;-61
2022/03/06 02:23:37;;;;;;;17.23;13.13;;;;;;;2.14;79.26;94720.66;5031654;28;20040;-60
2022/03/06 02:26:03;;;;;;;20.10;13.20;;;;;;;2.74;79.89;94815.25;5031001;28;20111;-66
2022/03/06 02:28:29;;;;;;;17.10;13.63;;;;;;;2.76;80.53;94821.13;5031599;28;20489;-61
2022/03/06 02:30:55;;;;;;;16.05;12.80;;;;;;;2.68;79.74;94788.28;5032018;28;20036;-58
2022/03/06 02:33:21;;;;;;;19.13;13.48;;;;;;;2.61;79.40;94773.28;5031525;28;20549;-60
2022/03/06 02:35:47;;;;;;;16.95;13.65;;;;;;;1.88;78.80;94656.25;5031423;28;20029;-59
2022/03/06 02:38:12;;;;;;;17.63;13.50;;;;;;;2.85;78.83;94815.69;5031198;28;20038;-62
2022/03/06 02:40:42;;;;;;;16.25;11.70;;;;;;;2.85;78.72;94808.03;5031257;28;20029;-59
2022/03/06 02:43:09;;;;;;;15.13;11.98;;;;;;;2.71;79.09;94784.81;5031590;28;20036;-60
2022/03/06 02:45:36;;;;;;;15.68;12.40;;;;;;;2.11;78.78;94692.78;5031499;28;20197;-59
2022/03/06 02:48:02;;;;;;;15.77;12.25;;;;;;;2.96;77.98;94822.13;5030908;28;20451;-64
2022/03/06 02:50:32;;;;;;;13.35;11.10;;;;;;;2.50;77.89;94750.78;5031094;28;20029;-58
2022/03/06 02:52:59;;;;;;;14.15;11.07;;;;;;;2.75;77.66;94782.09;5031456;28;20095;-60
2022/03/06 02:55:25;;;;;;;15.80;11.32;;;;;;;2.69;77.45;94781.47;5030835;28;20028;-61
2022/03/06 02:57:51;;;;;;;12.63;9.68;;;;;;;2.84;78.87;94826.78;5031193;28;20408;-60
2022/03/06 03:00:18;;;;;;;13.27;10.30;;;;;;;2.81;77.48;94808.22;5030548;28;20064;-59
2022/03/06 03:02:45;;;;;;;14.18;10.55;;;;;;;2.82;78.28;94826.00;5030954;28;20029;-58
2022/03/06 03:05:11;;;;;;;13.27;9.98;;;;;;;2.83;77.69;94825.09;5031055;28;20017;-58
2022/03/06 03:07:46;;;;;;;11.43;9.20;;;;;;;2.49;77.59;94769.47;5030911;28;20025;-61
2022/03/06 03:10:13;;;;;;;11.50;9.13;;;;;;;2.21;78.29;94739.88;5030577;28;20381;-63
2022/03/06 03:12:40;;;;;;;11.90;9.05;;;;;;;2.60;78.52;94803.00;5030790;28;20417;-59
2022/03/06 03:15:07;;;;;;;13.57;10.13;;;;;;;2.74;78.60;94830.53;5030752;28;20144;-60
2022/03/06 03:17:32;;;;;;;12.07;10.07;;;;;;;2.66;78.61;94846.06;5030723;28;20497;-60
2022/03/06 03:19:58;;;;;;;14.68;10.77;;;;;;;2.53;79.34;94827.84;5030527;28;20063;-59
2022/03/06 03:22:23;;;;;;;12.82;9.90;;;;;;;2.41;79.36;94819.81;5030536;28;20029;-61
2022/03/06 03:24:49;;;;;;;14.05;10.35;;;;;;;1.98;80.09;94761.03;5030067;28;20485;-59
2022/03/06 03:27:14;;;;;;;11.98;9.35;;;;;;;2.60;80.04;94845.47;5030629;28;20096;-60
2022/03/06 03:29:40;;;;;;;11.38;9.43;;;;;;;2.44;80.95;94848.50;5030605;28;20056;-61
2022/03/06 03:32:05;;;;;;;12.98;9.70;;;;;;;2.47;80.62;94850.97;5030589;28;20030;-61
2022/03/06 03:34:31;;;;;;;12.68;9.88;;;;;;;2.48;81.17;94846.72;5030270;28;20021;-60
2022/03/06 03:36:56;;;;;;;11.95;9.55;;;;;;;2.45;81.22;94836.63;5030239;28;20477;-59
2022/03/06 03:39:22;;;;;;;12.43;9.40;;;;;;;2.44;80.81;94842.59;5030178;28;20033;-60
2022/03/06 03:41:47;;;;;;;13.52;10.57;;;;;;;1.72;81.09;94733.91;5030285;28;20044;-60
2022/03/06 03:44:13;;;;;;;13.85;10.30;;;;;;;2.36;81.05;94843.69;5030257;28;20033;-60
2022/03/06 03:46:38;;;;;;;13.10;10.52;;;;;;;2.39;81.49;94841.06;5030413;28;20045;-61
2022/03/06 03:49:03;;;;;;;14.90;11.10;;;;;;;2.33;81.72;94850.63;5029823;28;20538;-60
2022/03/06 03:51:30;;;;;;;12.48;9.18;;;;;;;2.37;81.84;94849.63;5029879;28;20108;-60
2022/03/06 03:53:55;;;;;;;12.20;8.95;;;;;;;2.34;81.93;94839.53;5029989;28;20030;-60
2022/03/06 03:56:21;;;;;;;13.82;10.15;;;;;;;2.34;81.52;94845.44;5029946;28;20044;-61
2022/03/06 03:58:47;;;;;;;11.15;9.35;;;;;;;2.36;81.59;94843.69;5030372;28;20032;-59
2022/03/06 04:01:12;;;;;;;11.77;9.85;;;;;;;2.36;81.77;94848.78;5029656;28;20424;-60
2022/03/06 04:03:38;;;;;;;13.10;10.02;;;;;;;2.24;82.18;94846.66;5028621;28;20041;-60
2022/03/06 04:06:04;;;;;;;14.98;11.32;;;;;;;2.25;82.43;94850.88;5030241;28;20033;-60
2022/03/06 04:08:29;;;;;;;12.55;9.95;;;;;;;2.27;82.48;94855.91;5029606;28;20033;-61
2022/03/06 04:10:59;;;;;;;13.23;10.35;;;;;;;2.28;82.13;94849.91;5029899;28;20132;-60
2022/03/06 04:13:26;;;;;;;12.90;9.30;;;;;;;2.10;82.58;94828.47;5029120;28;20087;-60
2022/03/06 04:15:51;;;;;;;13.30;10.20;;;;;;;2.05;82.53;94828.63;5029932;28;20036;-59
2022/03/06 04:18:17;;;;;;;12.43;8.95;;;;;;;2.08;82.50;94820.06;5029831;28;20029;-59
2022/03/06 04:20:43;;;;;;;14.57;9.95;;;;;;;2.10;82.27;94831.00;5029565;28;20112;-59
2022/03/06 04:23:08;;;;;;;11.77;8.85;;;;;;;2.08;82.94;94837.84;5029916;28;20112;-60
2022/03/06 04:25:34;;;;;;;12.73;9.27;;;;;;;1.86;82.75;94813.13;5028991;28;20041;-59
2022/03/06 04:28:00;;;;;;;10.32;8.23;;;;;;;2.11;82.65;94850.47;5029818;28;20473;-60
2022/03/06 04:30:26;;;;;;;10.00;7.43;;;;;;;2.05;82.85;94846.44;5029631;28;20026;-59
2022/03/06 04:32:51;;;;;;;10.23;7.70;;;;;;;1.84;82.71;94814.91;5028929;28;20474;-59
2022/03/06 04:35:17;;;;;;;11.02;7.90;;;;;;;2.09;82.80;94858.16;5029471;28;20040;-61
2022/03/06 04:37:42;;;;;;;11.07;8.13;;;;;;;1.77;82.98;94818.50;5029130;28;20087;-59
2022/03/06 04:40:09;;;;;;;11.10;7.50;;;;;;;2.04;83.02;94854.13;5029524;28;20688;-59
2022/03/06 04:42:34;;;;;;;9.65;7.00;;;;;;;2.08;83.13;94855.66;5029143;28;20124;-59
2022/03/06 04:45:00;;;;;;;11.70;8.30;;;;;;;2.00;83.36;94858.44;5042776;28;20047;-60
2022/03/06 04:47:25;;;;;;;11.50;8.40;;;;;;;1.77;84.10;94819.34;5049040;28;20111;-61
2022/03/06 04:49:51;;;;;;;10.82;8.45;;;;;;;2.02;83.73;94861.78;5048758;28;20028;-59
2022/03/06 04:52:16;;;;;;;10.57;7.45;;;;;;;2.09;83.30;94857.34;5049257;28;20496;-60
2022/03/06 04:54:42;;;;;;;11.25;8.43;;;;;;;2.01;83.94;94855.03;5048727;28;20094;-61
2022/03/06 04:57:07;;;;;;;12.20;8.25;;;;;;;2.02;83.98;94854.97;5049094;28;20667;-60
2022/03/06 04:59:33;;;;;;;12.38;8.02;;;;;;;2.00;83.67;94859.28;5048772;28;20484;-61
2022/03/06 05:01:58;;;;;;;10.35;8.02;;;;;;;2.03;83.40;94858.34;5048503;28;20077;-60
2022/03/06 05:04:24;;;;;;;10.18;7.57;;;;;;;1.97;83.85;94853.47;5048907;28;20457;-59
2022/03/06 05:06:49;;;;;;;11.52;8.15;;;;;;;2.07;83.32;94848.94;5048982;28;20033;-58
2022/03/06 05:09:15;;;;;;;8.90;7.13;;;;;;;2.07;82.76;94859.09;5048642;28;20067;-60
2022/03/06 05:11:40;;;;;;;9.00;6.80;;;;;;;1.80;82.75;94818.41;5048957;28;20083;-60
2022/03/06 05:14:06;;;;;;;10.85;7.60;;;;;;;1.96;83.13;94859.44;5046975;28;20037;-58
2022/03/06 05:16:31;;;;;;;10.27;7.55;;;;;;;1.56;83.78;94792.03;5049079;28;20021;-59
2022/03/06 05:18:57;;;;;;;9.77;7.78;;;;;;;1.84;83.43;94843.69;5048914;28;20032;-59
2022/03/06 05:21:23;;;;;;;11.00;7.93;;;;;;;1.96;83.24;94859.44;5049078;28;20447;-59
2022/03/06 05:23:49;;;;;;;11.05;7.25;;;;;;;1.95;83.75;94855.22;5048357;28;20029;-58
2022/03/06 05:26:15;;;;;;;10.93;7.20;;;;;;;1.82;83.33;94847.13;5048573;28;20544;-60
2022/03/06 05:28:41;;;;;;;11.48;7.28;;;;;;;1.78;83.38;94853.22;5048182;28;20029;-59
2022/03/06 05:31:07;;;;;;;9.07;6.80;;;;;;;1.79;84.10;94855.72;5048777;28;20450;-59
2022/03/06 05:33:33;;;;;;;9.45;6.60;;;;;;;1.89;83.54;94863.06;5048371;28;20124;-59
2022/03/06 05:35:58;;;;;;;10.63;6.97;;;;;;;1.90;83.92;94862.16;5048051;28;20127;-59
2022/03/06 05:38:24;;;;;;;9.00;6.28;;;;;;;1.79;84.05;94847.25;5048343;28;20044;-56
2022/03/06 05:40:49;;;;;;;9.52;6.63;;;;;;;1.82;83.58;94840.38;5048322;28;20476;-62
2022/03/06 05:43:15;;;;;;;8.38;6.65;;;;;;;1.93;83.28;94875.59;5048141;28;20031;-60
2022/03/06 05:45:40;;;;;;;8.70;6.28;;;;;;;2.01;83.38;94870.28;5048061;28;20402;-62
2022/03/06 05:48:06;;;;;;;10.32;6.50;;;;;;;2.00;83.55;94873.69;5047862;28;20036;-61
2022/03/06 05:50:31;;;;;;;8.15;6.45;;;;;;;1.99;83.92;94865.25;5029901;28;20037;-64
2022/03/06 05:52:57;;;;;;;7.82;6.45;;;;;;;2.04;83.48;94867.66;5048488;28;20492;-61
2022/03/06 05:55:22;;;;;;;6.95;5.68;;;;;;;2.04;83.11;94864.28;5047973;28;20025;-59
2022/03/06 05:57:48;;;;;;;6.85;4.80;;;;;;;2.08;82.94;94858.22;5048016;28;20500;-68
2022/03/06 06:00:17;;;;;;;8.00;4.80;;;;;;;2.02;82.39;94860.06;5047817;28;20448;-63
2022/03/06 06:02:43;;;;;;;8.20;5.68;;;;;;;2.02;83.16;94875.34;5048355;28;20061;-65
2022/03/06 06:05:09;;;;;;;9.05;5.10;;;;;;;2.02;82.28;94874.50;5048556;28;20507;-67
2022/03/06 06:07:35;;;;;;;9.75;6.13;;;;;;;1.81;82.95;94856.50;5047982;28;20502;-64
2022/03/06 06:10:01;;;;;;;10.57;5.60;;;;;;;1.93;83.40;94883.25;5047967;28;20029;-64
2022/03/06 06:12:27;;;;;;;8.25;5.40;;;;;;;1.86;83.03;94869.06;5047695;28;20474;-64
2022/03/06 06:14:53;;;;;;;7.05;5.00;;;;;;;2.01;82.53;94881.28;5047781;28;20053;-60
2022/03/06 06:17:19;;;;;;;8.95;5.30;;;;;;;2.04;82.44;94887.19;5047829;28;20120;-63
2022/03/06 06:19:45;;;;;;;8.63;5.20;;;;;;;2.02;82.31;94882.97;5047976;28;20017;-66
2022/03/06 06:22:10;;;;;;;11.30;6.15;;;;;;;2.02;82.08;94888.03;5048171;28;20029;-63
2022/03/06 06:24:36;;;;;;;8.35;5.40;;;;;;;1.84;81.60;94866.56;5047038;28;20105;-68
2022/03/06 06:27:02;;;;;;;8.55;5.82;;;;;;;1.88;81.37;94862.22;5048007;28;20037;-66
2022/03/06 06:29:27;;;;;;;7.35;6.00;;;;;;;1.55;80.70;94820.91;5047876;28;20074;-67
2022/03/06 06:31:53;;;;;;;7.30;5.43;;;;;;;1.99;81.43;94894.94;5047804;28;20550;-63
2022/03/06 06:34:19;;;;;;;7.15;4.47;;;;;;;1.82;81.33;94844.59;5047827;28;20025;-60
2022/03/06 06:36:45;;;;;;;6.63;4.30;;;;;;;2.08;81.01;94889.56;5047407;28;20021;-65
2022/03/06 06:39:11;;;;;;;8.60;5.10;;;;;;;2.02;81.22;94888.03;5047988;28;20032;-63
2022/03/06 06:41:40;;;;;;;10.77;6.32;;;;;;;2.09;80.95;94896.31;5047741;28;20056;-68
2022/03/06 06:44:07;;;;;;;8.73;5.47;;;;;;;1.78;80.63;94825.25;5047790;28;20025;-64
2022/03/06 06:46:33;;;;;;;7.45;5.00;;;;;;;1.88;80.66;94844.41;5047402;28;20021;-67
2022/03/06 06:49:00;;;;;;;6.07;4.70;;;;;;;1.96;81.07;94855.16;5047562;28;20132;-64
2022/03/06 06:51:27;;;;;;;6.18;4.35;;;;;;;1.67;81.12;94825.59;5047789;28;20032;-64
2022/03/06 06:53:52;;;;;;;5.68;4.65;;;;;;;2.16;81.47;94900.31;5047686;28;20408;-64
2022/03/06 06:56:19;;;;;;;4.90;3.95;;;;;;;1.87;80.47;94841.91;5050444;28;20044;-65
2022/03/06 06:58:44;;;;;;;5.50;3.90;;;;;;;2.09;81.00;94891.22;5051290;28;20021;-62
2022/03/06 07:01:10;;;;;;;7.97;5.28;;;;;;;2.00;81.18;94889.81;5051134;28;20138;-65
2022/03/06 07:03:35;;;;;;;4.97;4.00;;;;;;;2.11;80.38;94901.34;5051098;28;20020;-66
2022/03/06 07:06:00;;;;;;;5.65;3.90;;;;;;;2.17;81.29;94906.25;5051401;28;20025;-63
2022/03/06 07:08:26;;;;;;;6.15;4.10;;;;;;;1.78;80.83;94845.59;5051123;28;20021;-61
2022/03/06 07:10:51;;;;;;;5.25;3.58;;;;;;;2.02;79.86;94867.69;5051123;28;20029;-60
2022/03/06 07:13:17;;;;;;;6.05;3.45;;;;;;;2.00;80.28;94872.00;5051012;28;20045;-67
2022/03/06 07:15:43;;;;;;;6.53;4.07;;;;;;;2.07;80.95;94885.38;5051127;28;20249;-60
2022/03/06 07:18:08;;;;;;;5.63;4.28;;;;;;;2.21;80.97;94902.72;5051238;28;20448;-59
2022/03/06 07:20:34;;;;;;;6.20;4.18;;;;;;;2.18;80.36;94900.25;5051451;28;20033;-61
2022/03/06 07:22:59;;;;;;;6.85;4.50;;;;;;;2.09;80.50;94885.31;5051221;28;20029;-60
2022/03/06 07:25:25;;;;;;;6.18;4.10;;;;;;;2.16;80.23;94894.41;5050711;28;20032;-60
2022/03/06 07:27:51;;;;;;;10.30;5.75;;;;;;;2.17;80.42;94894.34;5051057;28;20044;-60
2022/03/06 07:30:16;;;;;;;7.07;4.45;;;;;;;2.01;80.25;94860.94;5050946;28;20029;-60
2022/03/06 07:32:43;;;;;;;5.22;4.00;;;;;;;2.02;79.66;94856.72;5050710;28;20523;-61
2022/03/06 07:35:10;;;;;;;5.45;4.05;;;;;;;2.35;79.28;94892.94;5051262;28;20028;-60
2022/03/06 07:37:35;;;;;;;7.38;4.45;;;;;;;2.10;79.34;94864.06;5044031;28;20013;-62
2022/03/06 07:40:01;;;;;;;6.10;4.80;;;;;;;2.40;78.80;94915.69;5040040;28;20037;-62
2022/03/06 07:42:26;;;;;;;6.88;5.47;;;;;;;2.43;78.89;94907.09;5041160;28;20100;-66
2022/03/06 07:44:52;;;;;;;8.02;4.78;;;;;;;2.37;78.96;94888.59;5047758;28;20112;-62
2022/03/06 07:47:17;;;;;;;7.57;4.78;;;;;;;2.41;78.90;94898.69;5050672;28;20462;-60
2022/03/06 07:49:43;;;;;;;6.30;4.90;;;;;;;2.42;79.08;94910.53;5049821;28;20029;-61
2022/03/06 07:52:08;;;;;;;9.63;5.60;;;;;;;2.38;78.94;94915.72;5050793;28;20037;-59
2022/03/06 07:54:33;;;;;;;7.35;4.80;;;;;;;2.39;79.33;94916.56;5050122;28;20063;-60
2022/03/06 07:56:59;;;;;;;8.45;6.15;;;;;;;2.35;78.89;94925.19;5050487;28;20110;-59
2022/03/06 07:59:25;;;;;;;8.70;5.13;;;;;;;2.14;79.33;94886.81;5050276;28;20028;-60
2022/03/06 08:01:53;;;;;;;8.63;4.85;;;;;;;1.98;78.88;94850.03;5039737;28;20033;-63
2022/03/06 08:04:19;;;;;;;12.70;6.40;;;;;;;2.22;78.70;94880.66;5030334;28;20036;-61
2022/03/06 08:06:44;;;;;;;9.43;5.10;;;;;;;2.44;78.46;94911.31;5028758;28;20112;-61
2022/03/06 08:09:10;;;;;;;6.88;5.10;;;;;;;2.48;78.78;94911.19;5030366;28;20027;-60
2022/03/06 08:11:35;;;;;;;8.00;5.18;;;;;;;2.51;78.87;94920.41;5037461;28;20485;-61
2022/03/06 08:14:01;;;;;;;6.65;4.75;;;;;;;2.55;78.84;94919.44;5038095;28;20412;-61
2022/03/06 08:16:26;;;;;;;9.40;5.63;;;;;;;2.55;78.45;94914.34;5040026;28;20029;-60
2022/03/06 08:18:51;;;;;;;6.82;4.90;;;;;;;2.49;78.18;94899.28;5038577;28;20028;-64
2022/03/06 08:21:17;;;;;;;7.78;4.35;;;;;;;2.53;78.61;94921.22;5038481;28;20036;-60
2022/03/06 08:23:42;;;;;;;6.47;4.60;;;;;;;2.55;78.39;94932.16;5031588;28;20033;-59
2022/03/06 08:26:08;;;;;;;6.32;4.53;;;;;;;2.46;77.82;94912.94;5036984;28;20032;-60
2022/03/06 08:28:33;;;;;;;7.32;5.25;;;;;;;2.51;78.15;94923.81;5028033;28;20041;-66
2022/03/06 08:30:59;;;;;;;8.90;6.20;;;;;;;2.38;78.42;94905.56;5026497;28;20033;-60
2022/03/06 08:33:24;;;;;;;7.88;5.68;;;;;;;2.29;78.20;94884.66;5029409;28;20079;-59
2022/03/06 08:35:50;;;;;;;11.00;6.38;;;;;;;2.58;77.75;94919.34;5028758;28;20029;-59
2022/03/06 08:38:15;;;;;;;8.05;5.80;;;;;;;2.64;77.90;94910.66;5028444;28;20030;-60
2022/03/06 08:40:40;;;;;;;9.18;6.68;;;;;;;2.70;77.29;94895.16;5029476;28;20044;-59
2022/03/06 08:43:06;;;;;;;10.02;6.75;;;;;;;2.55;77.07;94860.88;5029182;28;20029;-61
2022/03/06 08:45:31;;;;;;;8.65;6.40;;;;;;;2.50;76.77;94837.31;5031940;28;20045;-61
2022/03/06 08:47:57;;;;;;;11.55;6.53;;;;;;;2.94;76.34;94894.31;5029105;28;20374;-61
2022/03/06 08:50:22;;;;;;;9.85;6.35;;;;;;;3.18;75.29;94889.25;5025380;28;20052;-60
2022/03/06 08:52:48;;;;;;;8.43;5.55;;;;;;;3.32;73.82;94883.63;5024882;28;20037;-60
2022/03/06 08:55:13;;;;;;;6.88;5.43;;;;;;;3.47;73.47;94892.44;5025832;28;20114;-61
2022/03/06 08:57:39;;;;;;;6.72;5.03;;;;;;;3.42;73.50;94876.50;5028690;28;20029;-60
2022/03/06 09:00:07;;;;;;;6.68;4.90;;;;;;;3.60;74.20;94892.81;5024958;28;20814;-61
2022/03/06 09:02:32;;;;;;;8.57;5.47;;;;;;;3.81;74.17;94893.72;5025369;28;20036;-61
2022/03/06 09:04:58;;;;;;;9.25;5.57;;;;;;;4.13;73.52;94891.63;5024156;28;20029;-62
2022/03/06 09:07:24;;;;;;;9.75;6.32;;;;;;;4.38;72.17;94905.06;5028027;28;20034;-61
2022/03/06 09:09:49;;;;;;;7.47;6.00;;;;;;;4.70;70.77;94900.34;5025600;28;20036;-61
2022/03/06 09:12:15;;;;;;;7.80;5.63;;;;;;;4.84;68.97;94898.94;5027403;28;20053;-61
2022/03/06 09:14:40;;;;;;;9.25;6.50;;;;;;;4.85;69.67;94869.94;5025146;28;20179;-61
2022/03/06 09:17:08;;;;;;;8.02;5.63;;;;;;;4.56;68.95;94841.38;5027703;28;20029;-61
2022/03/06 09:19:34;;;;;;;9.23;6.55;;;;;;;4.34;69.42;94836.31;5033767;28;20036;-62
2022/03/06 09:22:00;;;;;;;10.63;7.00;;;;;;;4.57;70.48;94902.56;5040525;28;20025;-62
2022/03/06 09:24:25;;;;;;;8.35;6.32;;;;;;;4.01;71.08;94850.38;5036306;28;20036;-60
2022/03/06 09:26:50;;;;;;;7.90;5.70;;;;;;;4.35;71.31;94912.03;5041015;28;20048;-60
2022/03/06 09:29:16;;;;;;;8.07;6.07;;;;;;;4.25;71.04;94919.22;5025704;28;20041;-62
2022/03/06 09:31:43;;;;;;;10.95;6.03;;;;;;;4.08;71.85;94901.19;5026602;28;20041;-61
2022/03/06 09:34:09;;;;;;;8.20;6.20;;;;;;;4.01;72.21;94903.16;5025093;28;20034;-60
2022/03/06 09:36:36;;;;;;;8.00;5.40;;;;;;;3.87;71.95;94901.16;5028791;28;20051;-60
2022/03/06 09:39:07;;;;;;;7.75;5.72;;;;;;;3.75;73.01;94891.41;5035466;28;20036;-66
2022/03/06 09:41:38;;;;;;;8.40;5.32;;;;;;;3.62;73.26;94885.94;5045388;28;20739;-61
2022/03/06 09:44:07;;;;;;;6.85;4.22;;;;;;;2.89;72.59;94775.69;5031324;28;20460;-60
2022/03/06 09:46:34;;;;;;;5.78;4.30;;;;;;;3.39;72.83;94854.47;5025750;28;20038;-64
2022/03/06 09:49:04;;;;;;;6.97;4.10;;;;;;;3.61;72.43;94894.50;5029294;28;20770;-63
2022/03/06 09:51:39;;;;;;;5.90;4.15;;;;;;;3.44;73.25;94907.84;5037797;28;20116;-62
2022/03/06 09:54:06;;;;;;;6.63;4.35;;;;;;;3.39;73.90;94905.47;5045521;28;20028;-63
2022/03/06 09:56:32;;;;;;;7.80;5.18;;;;;;;3.36;73.98;94904.75;5043864;28;20037;-61
2022/03/06 09:58:57;;;;;;;7.93;5.22;;;;;;;3.12;74.61;94857.16;5045270;28;20155;-59
2022/03/06 10:01:23;;;;;;;7.13;4.78;;;;;;;3.41;74.67;94903.72;5044698;28;20036;-59
2022/03/06 10:03:48;;;;;;;7.97;5.13;;;;;;;3.41;74.32;94910.50;5042407;28;20048;-61
2022/03/06 10:06:14;;;;;;;8.00;4.60;;;;;;;3.20;73.16;94891.72;5025837;28;20029;-62
2022/03/06 10:08:39;;;;;;;6.97;4.80;;;;;;;3.40;73.44;94904.59;5025152;28;20136;-61
2022/03/06 10:11:11;;;;;;;7.03;5.45;;;;;;;3.45;73.87;94914.63;5025486;28;20042;-60
2022/03/06 10:13:37;;;;;;;;;;;;;;;3.38;72.99;94901.28;5025227;28;20072;-58
2022/03/06 10:16:09;;;;;;;6.53;4.78;;;;;;;3.14;74.18;94902.97;5025838;28;19917;-59
2022/03/06 10:18:36;;;;;;;6.93;4.50;;;;;;;3.14;73.78;94908.06;5024621;28;20045;-62
2022/03/06 10:21:17;;;;;;;7.13;5.13;;;;;;;2.60;73.04;94841.19;5045156;28;20040;-62
2022/03/06 10:23:43;;;;;;;6.00;4.87;;;;;;;3.08;72.40;94898.94;5026807;28;20112;-60
2022/03/06 10:26:14;;;;;;;6.93;5.30;;;;;;;3.06;72.38;94912.59;5024572;28;20033;-61
2022/03/06 10:28:49;;;;;;;4.93;4.25;;;;;;;3.06;71.21;94907.50;5029220;28;20057;-61
2022/03/06 10:31:15;;;;;;;5.80;4.43;;;;;;;2.93;71.46;94904.56;5030713;28;20029;-61
2022/03/06 10:33:53;;;;;;;7.28;5.43;;;;;;;3.12;72.54;94917.50;5039432;28;20041;-61
2022/03/06 10:36:29;;;;;;;7.63;5.70;;;;;;;3.09;71.33;94913.31;5048388;28;20071;-60
2022/03/06 10:38:54;;;;;;;7.88;5.68;;;;;;;3.29;69.85;94899.88;5028635;28;20030;-60
2022/03/06 10:41:19;;;;;;;6.05;5.05;;;;;;;3.23;69.99;94900.09;5030744;28;20385;-62
2022/03/06 10:43:45;;;;;;;6.57;5.03;;;;;;;3.24;69.44;94898.38;5040534;28;20055;-59
2022/03/06 10:46:19;;;;;;;9.80;6.70;;;;;;;3.29;70.18;94901.59;5040397;28;20468;-61
2022/03/06 10:48:54;;;;;;;7.63;5.97;;;;;;;3.44;69.87;94903.59;5027995;28;20076;-59
2022/03/06 10:51:20;;;;;;;9.13;6.70;;;;;;;3.48;70.46;94900.03;5048513;28;20025;-60
2022/03/06 10:53:59;;;;;;;7.82;5.43;;;;;;;3.49;68.57;94871.09;5048072;28;20112;-62
2022/03/06 10:56:26;;;;;;;10.02;7.00;;;;;;;3.59;69.47;94878.38;5042087;28;21300;-60
2022/03/06 10:58:54;;;;;;;7.80;5.38;;;;;;;3.72;69.20;94886.41;5030715;28;20033;-61
2022/03/06 11:01:20;;;;;;;7.60;5.38;;;;;;;3.71;69.34;94877.94;5028029;28;20128;-60
2022/03/06 11:03:49;;;;;;;10.30;6.40;;;;;;;3.55;69.85;94857.28;5028293;28;20034;-61
2022/03/06 11:06:16;;;;;;;8.52;7.00;;;;;;;3.53;71.00;94858.25;5032366;28;20025;-64
2022/03/06 11:08:43;;;;;;;8.45;6.15;;;;;;;3.78;71.56;94888.72;5033968;28;20035;-66
2022/03/06 11:11:09;;;;;;;8.90;6.45;;;;;;;3.70;71.98;94878.81;5027991;28;20059;-63
2022/03/06 11:13:36;;;;;;;11.23;6.03;;;;;;;3.56;72.34;94869.16;5026446;28;20050;-60
2022/03/06 11:16:02;;;;;;;10.35;7.72;;;;;;;3.82;72.38;94897.91;5030400;28;20204;-61
2022/03/06 11:18:29;;;;;;;9.00;6.85;;;;;;;3.83;71.71;94885.09;5044836;28;20025;-62
2022/03/06 11:20:56;;;;;;;10.35;6.85;;;;;;;3.60;72.79;94900.47;5041529;28;20144;-61
2022/03/06 11:23:45;;;;;;;9.20;5.97;;;;;;;3.55;75.53;94903.19;5028759;28;20064;-61
2022/03/06 11:26:30;;;;;;;7.20;4.88;;;;;;;3.41;72.03;94873.13;5027703;28;20132;-62
2022/03/06 11:28:58;;;;;;;7.30;5.05;;;;;;;3.41;72.98;94906.25;5027399;28;20036;-64
2022/03/06 11:31:24;;;;;;;5.63;3.72;;;;;;;3.26;72.30;94909.34;5027587;28;20131;-59
2022/03/06 11:33:56;;;;;;;6.20;4.90;;;;;;;3.11;73.03;94900.53;5026051;28;20492;-61